CheckWX is a tool to help pilots better visualize weather data.  It is not intended as a substitute for an official pre-flight weather briefing.

06:09:45 UTC

DNMM METAR
Murtala Muhammed International Airport
Lagos, Nigeria
Current

1 hour ago

DNMM 230500Z 00000KT 9999 SCT012 28/26 Q1010 NOSIG
Observed
Apr-23 @ 05:00 UTC
Visibility
10,000+ meters
Flight Rules
VFR
Cloud Levels
  • Scattered at 1,200' AGL
Temperature
28°C / 82°F
Dewpoint
26°C / 79°F
Heat Index
33°C / 91°F
Humidity
89%
Altimeter
29.82" Hg
Pressure
1009.92 hPa
Previous

2 hours ago

DNMM 230400Z VRB02KT 9999 FEW012 28/26 Q1009 NOSIG
Observed
Apr-23 @ 04:00 UTC
Wind
  • Variable at 2 KTS
Visibility
10,000+ meters
Flight Rules
VFR
Cloud Levels
  • Few at 1,200' AGL
Temperature
28°C / 82°F
Dewpoint
26°C / 79°F
Heat Index
33°C / 91°F
Humidity
89%
Altimeter
29.79" Hg
Pressure
1008.92 hPa
Previous

5 hours ago

DNMM 230100Z 25004KT 9999 FEW012 28/26 Q1009 NOSIG
Observed
Apr-23 @ 01:00 UTC
Wind
  • 250° at 4 KTS
Visibility
10,000+ meters
Flight Rules
VFR
Cloud Levels
  • Few at 1,200' AGL
Temperature
28°C / 82°F
Dewpoint
26°C / 79°F
Heat Index
33°C / 91°F
Humidity
89%
Altimeter
29.79" Hg
Pressure
1008.92 hPa